createdAt,value
2018-10-02T00:00:43.014Z,77.82
2018-10-02T00:03:11.788Z,78.01
2018-10-02T00:05:40.617Z,77.94
2018-10-02T00:08:09.520Z,77.53
2018-10-02T00:10:38.330Z,77.32
2018-10-02T00:13:12.463Z,77.31
2018-10-02T00:15:41.367Z,78.01
2018-10-02T00:18:10.233Z,78.01
2018-10-02T00:20:39.033Z,78.03
2018-10-02T00:23:07.816Z,78.56
2018-10-02T00:25:36.628Z,78.71
2018-10-02T00:28:05.432Z,78.64
2018-10-02T00:30:34.496Z,78.42
2018-10-02T00:33:03.444Z,78.71
2018-10-02T00:35:32.333Z,78.11
2018-10-02T00:38:01.128Z,78.49
2018-10-02T00:40:29.891Z,78.46
2018-10-02T00:42:58.733Z,79.25
2018-10-02T00:45:27.611Z,78.87
2018-10-02T00:47:56.431Z,79.43
2018-10-02T00:50:25.306Z,78.90
2018-10-02T00:52:54.400Z,78.96
2018-10-02T00:55:23.324Z,79.49
2018-10-02T00:57:52.180Z,79.08
2018-10-02T01:00:21.312Z,78.81
2018-10-02T01:02:50.234Z,78.42
2018-10-02T01:05:19.043Z,78.88
2018-10-02T01:07:47.964Z,78.36
2018-10-02T01:10:16.868Z,78.26
2018-10-02T01:12:45.790Z,78.06
2018-10-02T01:15:14.632Z,78.64
2018-10-02T01:17:43.597Z,77.88
2018-10-02T01:20:12.538Z,78.07
2018-10-02T01:22:41.330Z,77.89
2018-10-02T01:25:10.180Z,78.20
2018-10-02T01:30:07.249Z,77.81
2018-10-02T01:32:36.353Z,78.28
2018-10-02T01:35:05.293Z,78.11
2018-10-02T01:37:34.083Z,77.60
2018-10-02T01:40:02.924Z,78.21
2018-10-02T01:42:31.735Z,77.93
2018-10-02T01:45:00.738Z,77.48
2018-10-02T01:47:29.543Z,77.48
2018-10-02T01:49:58.416Z,77.76
2018-10-02T01:52:27.245Z,78.21
2018-10-02T01:54:56.092Z,78.84
2018-10-02T01:57:24.847Z,78.33
2018-10-02T01:59:53.760Z,78.22
2018-10-02T02:02:22.560Z,79.02
2018-10-02T02:04:51.444Z,79.38
2018-10-02T02:07:20.269Z,78.98
2018-10-02T02:09:49.060Z,79.00
2018-10-02T02:12:17.862Z,79.83
2018-10-02T02:14:46.672Z,79.91
2018-10-02T02:17:15.465Z,79.38
2018-10-02T02:19:44.261Z,79.43
2018-10-02T02:22:13.038Z,79.56
2018-10-02T02:24:41.858Z,79.67
2018-10-02T02:27:10.679Z,80.28
2018-10-02T02:29:39.493Z,80.26
2018-10-02T02:32:08.309Z,79.94
2018-10-02T02:34:37.151Z,79.71
2018-10-02T02:37:06.088Z,79.53
2018-10-02T02:39:35.067Z,79.79
2018-10-02T02:42:04.388Z,79.29
2018-10-02T02:44:33.159Z,79.41
2018-10-02T02:47:07.244Z,79.93
2018-10-02T02:49:41.271Z,79.69
2018-10-02T02:52:10.284Z,79.81
2018-10-02T02:54:39.155Z,79.73
2018-10-02T02:57:08.264Z,79.81
2018-10-02T02:59:37.059Z,79.92
2018-10-02T03:02:05.983Z,79.90
2018-10-02T03:04:34.890Z,80.26
2018-10-02T03:07:03.825Z,80.28
2018-10-02T03:09:32.907Z,79.45
2018-10-02T03:12:01.777Z,79.75
2018-10-02T03:14:30.545Z,79.62
2018-10-02T03:16:59.472Z,79.15
2018-10-02T03:19:28.248Z,79.31
2018-10-02T03:21:57.217Z,78.95
2018-10-02T03:24:26.257Z,79.02
2018-10-02T03:26:55.047Z,78.93
2018-10-02T03:29:23.832Z,78.98
2018-10-02T03:31:52.675Z,79.26
2018-10-02T03:34:21.506Z,79.22
2018-10-02T03:36:50.443Z,79.49
2018-10-02T03:39:19.818Z,80.00
2018-10-02T03:41:48.580Z,79.44
2018-10-02T03:44:17.628Z,79.23
2018-10-02T03:46:46.493Z,80.29
2018-10-02T03:49:15.379Z,79.93
2018-10-02T03:51:44.243Z,79.69
2018-10-02T03:54:13.140Z,80.12
2018-10-02T03:56:42.036Z,80.51
2018-10-02T03:59:10.853Z,79.86
2018-10-02T04:01:39.812Z,80.25
2018-10-02T04:04:08.616Z,80.42
2018-10-02T04:06:37.543Z,79.74
2018-10-02T04:09:09.188Z,80.20
2018-10-02T04:11:38.243Z,80.59
2018-10-02T04:14:07.310Z,81.07
2018-10-02T04:16:36.088Z,80.68
2018-10-02T04:19:04.981Z,80.83
2018-10-02T04:21:35.656Z,80.64
2018-10-02T04:24:05.835Z,80.50
2018-10-02T04:26:35.794Z,80.53
2018-10-02T04:29:05.924Z,80.95
2018-10-02T04:31:36.173Z,81.02
2018-10-02T04:34:05.378Z,80.21
2018-10-02T04:36:34.423Z,80.18
2018-10-02T04:39:03.363Z,80.18
2018-10-02T04:41:32.171Z,80.15
2018-10-02T04:44:01.333Z,80.17
2018-10-02T04:46:30.204Z,80.38
2018-10-02T04:48:59.166Z,80.25
2018-10-02T04:51:28.067Z,80.37
2018-10-02T04:53:56.895Z,80.03
2018-10-02T04:56:25.811Z,80.17
2018-10-02T04:58:54.829Z,79.45
2018-10-02T05:01:24.228Z,80.33
2018-10-02T05:03:54.406Z,79.71
2018-10-02T05:06:23.301Z,78.87
2018-10-02T05:08:52.246Z,79.19
2018-10-02T05:11:21.924Z,78.20
2018-10-02T05:13:50.728Z,78.49
2018-10-02T05:16:19.685Z,77.90
2018-10-02T05:18:48.531Z,77.87
2018-10-02T05:21:17.394Z,78.03
2018-10-02T05:23:46.325Z,78.23
2018-10-02T05:26:15.274Z,77.42
2018-10-02T05:28:44.190Z,77.11
2018-10-02T05:31:13.090Z,76.95
2018-10-02T05:33:42.033Z,77.42
2018-10-02T05:36:11.077Z,76.95
2018-10-02T05:38:39.958Z,76.41
2018-10-02T05:41:08.854Z,76.22
2018-10-02T05:43:37.901Z,75.68
2018-10-02T05:46:06.790Z,75.29
2018-10-02T05:48:35.605Z,75.58
2018-10-02T05:51:04.539Z,74.44
2018-10-02T05:53:34.872Z,75.13
2018-10-02T05:56:03.714Z,74.40
2018-10-02T05:58:32.789Z,74.16
2018-10-02T06:01:01.826Z,73.94
2018-10-02T06:03:30.782Z,73.39
2018-10-02T06:05:59.581Z,72.86
2018-10-02T06:08:28.393Z,72.42
2018-10-02T06:10:57.325Z,73.14
2018-10-02T06:13:26.289Z,72.93
2018-10-02T06:15:55.443Z,72.33
2018-10-02T06:18:24.298Z,72.62
2018-10-02T06:20:53.449Z,71.93
2018-10-02T06:23:22.531Z,71.50
2018-10-02T06:25:51.459Z,71.93
2018-10-02T06:28:20.307Z,71.70
2018-10-02T06:30:49.271Z,71.30
2018-10-02T06:33:18.213Z,71.26
2018-10-02T06:35:47.134Z,72.16
2018-10-02T06:38:16.290Z,71.79
2018-10-02T06:40:45.317Z,71.91
2018-10-02T06:43:14.203Z,73.69
2018-10-02T06:45:43.061Z,73.33
2018-10-02T06:48:11.946Z,73.58
2018-10-02T06:50:40.905Z,73.96
2018-10-02T06:53:10.907Z,73.81
2018-10-02T06:55:39.763Z,73.82
2018-10-02T06:58:08.585Z,73.97
2018-10-02T07:00:37.401Z,73.23
2018-10-02T07:03:06.815Z,72.78
2018-10-02T07:05:35.792Z,73.30
2018-10-02T07:08:04.685Z,72.34
2018-10-02T07:10:35.241Z,72.32
2018-10-02T07:13:04.133Z,72.73
2018-10-02T07:15:33.033Z,72.85
2018-10-02T07:18:02.068Z,72.52
2018-10-02T07:20:31.016Z,71.89
2018-10-02T07:23:00.068Z,72.47
2018-10-02T07:25:28.964Z,71.60
2018-10-02T07:27:58.102Z,72.29
2018-10-02T07:30:27.056Z,71.56
2018-10-02T07:32:56.171Z,70.73
2018-10-02T07:35:25.229Z,70.95
2018-10-02T07:37:54.117Z,71.37
2018-10-02T07:40:23.046Z,71.89
2018-10-02T07:42:51.913Z,70.95
2018-10-02T07:45:20.784Z,71.20
2018-10-02T07:47:49.708Z,70.75
2018-10-02T07:50:18.526Z,71.62
2018-10-02T07:52:47.370Z,70.35
2018-10-02T07:55:16.707Z,71.14
2018-10-02T07:57:45.544Z,70.75
2018-10-02T08:00:14.477Z,70.37
2018-10-02T08:02:43.409Z,69.86
2018-10-02T08:05:12.527Z,69.74
2018-10-02T08:07:41.590Z,69.87
2018-10-02T08:10:10.477Z,69.11
2018-10-02T08:12:39.377Z,69.27
2018-10-02T08:15:08.260Z,68.59
2018-10-02T08:17:37.269Z,68.39
2018-10-02T08:20:06.357Z,68.07
2018-10-02T08:22:35.297Z,68.60
2018-10-02T08:25:04.289Z,67.75
2018-10-02T08:27:33.225Z,67.52
2018-10-02T08:30:02.267Z,67.77
2018-10-02T08:32:31.332Z,66.85
2018-10-02T08:35:00.330Z,66.87
2018-10-02T08:37:29.215Z,66.50
2018-10-02T08:39:58.232Z,66.25
2018-10-02T08:42:27.077Z,65.60
2018-10-02T08:44:56.059Z,66.22
2018-10-02T08:47:25.251Z,65.82
2018-10-02T08:49:54.948Z,65.82
2018-10-02T08:52:23.833Z,65.53
2018-10-02T08:54:52.643Z,65.67
2018-10-02T08:57:21.544Z,65.72
2018-10-02T08:59:50.405Z,64.45
2018-10-02T09:02:19.562Z,65.07
2018-10-02T09:04:48.604Z,64.10
2018-10-02T09:07:17.393Z,64.29
2018-10-02T09:09:46.266Z,63.70
2018-10-02T09:12:15.129Z,64.25
2018-10-02T09:14:44.452Z,63.94
2018-10-02T09:17:13.329Z,62.98
2018-10-02T09:19:42.160Z,62.85
2018-10-02T09:22:11.064Z,62.09
2018-10-02T09:24:40.210Z,62.75
2018-10-02T09:27:09.280Z,62.49
2018-10-02T09:29:42.245Z,61.50
2018-10-02T09:32:16.432Z,62.14
2018-10-02T09:34:50.544Z,61.95
2018-10-02T09:37:24.707Z,62.05
2018-10-02T09:39:58.807Z,61.86
2018-10-02T09:42:32.992Z,62.26
2018-10-02T09:45:02.162Z,61.35
2018-10-02T09:47:31.082Z,60.73
2018-10-02T09:49:59.939Z,60.02
2018-10-02T09:52:29.005Z,60.32
2018-10-02T09:54:57.856Z,59.41
2018-10-02T09:57:26.870Z,59.73
2018-10-02T09:59:55.728Z,59.45
2018-10-02T10:02:29.925Z,59.75
2018-10-02T10:04:58.982Z,59.89
2018-10-02T10:07:27.925Z,59.30
2018-10-02T10:09:56.765Z,59.18
2018-10-02T10:12:25.638Z,58.47
2018-10-02T10:14:54.539Z,58.25
2018-10-02T10:17:23.452Z,58.78
2018-10-02T10:19:52.476Z,57.76
2018-10-02T10:22:21.375Z,57.61
2018-10-02T10:24:50.177Z,57.51
2018-10-02T10:27:18.973Z,56.77
2018-10-02T10:29:47.800Z,56.84
2018-10-02T10:32:16.693Z,56.18
2018-10-02T10:34:45.993Z,56.15
2018-10-02T10:37:15.071Z,55.71
2018-10-02T10:39:43.892Z,55.56
2018-10-02T10:42:12.748Z,55.18
2018-10-02T10:44:41.645Z,55.01
2018-10-02T10:47:10.495Z,54.92
2018-10-02T10:49:39.326Z,54.71
2018-10-02T10:52:08.284Z,55.15
2018-10-02T10:54:37.140Z,54.21
2018-10-02T10:57:06.002Z,54.60
2018-10-02T10:59:34.891Z,54.47
2018-10-02T11:02:03.798Z,53.38
2018-10-02T11:04:32.812Z,52.59
2018-10-02T11:07:01.865Z,53.23
2018-10-02T11:09:30.712Z,52.87
2018-10-02T11:11:59.745Z,53.05
2018-10-02T11:14:28.585Z,51.92
2018-10-02T11:16:57.618Z,52.49
2018-10-02T11:19:26.516Z,53.10
2018-10-02T11:21:55.422Z,51.98
2018-10-02T11:24:24.442Z,51.13
2018-10-02T11:26:53.283Z,51.73
2018-10-02T11:29:22.182Z,51.40
2018-10-02T11:31:51.106Z,51.35
2018-10-02T11:34:20.116Z,50.92
2018-10-02T11:36:49.097Z,50.99
2018-10-02T11:39:17.942Z,49.35
2018-10-02T11:41:47.443Z,49.99
2018-10-02T11:44:18.797Z,50.14
2018-10-02T11:46:47.822Z,50.37
2018-10-02T11:49:16.665Z,49.38
2018-10-02T11:51:45.824Z,48.94
2018-10-02T11:54:14.899Z,48.04
2018-10-02T11:56:44.174Z,47.82
2018-10-02T11:59:13.056Z,48.27
2018-10-02T12:01:41.914Z,47.82
2018-10-02T12:04:11.023Z,47.22
2018-10-02T12:06:39.859Z,47.94
2018-10-02T12:09:08.882Z,47.79
2018-10-02T12:11:37.980Z,47.71
2018-10-02T12:14:07.133Z,47.35
2018-10-02T12:16:36.170Z,47.85
2018-10-02T12:19:05.541Z,46.51
2018-10-02T12:21:34.408Z,45.07
2018-10-02T12:24:03.358Z,44.93
2018-10-02T12:26:32.230Z,45.97
2018-10-02T12:29:01.129Z,45.29
2018-10-02T12:31:29.942Z,44.83
2018-10-02T12:33:58.781Z,44.62
2018-10-02T12:36:27.979Z,45.32
2018-10-02T12:38:56.924Z,44.60
2018-10-02T12:41:26.072Z,45.30
2018-10-02T12:43:54.925Z,43.73
2018-10-02T12:46:23.751Z,44.76
2018-10-02T12:48:52.749Z,44.55
2018-10-02T12:51:21.760Z,44.01
2018-10-02T12:53:50.789Z,43.39
2018-10-02T12:56:19.666Z,43.10
2018-10-02T12:58:48.527Z,43.18
2018-10-02T13:01:18.279Z,42.44
2018-10-02T13:03:47.142Z,43.50
2018-10-02T13:06:15.974Z,43.56
2018-10-02T13:08:44.977Z,42.48
2018-10-02T13:11:13.806Z,43.19
2018-10-02T13:13:42.819Z,43.35
2018-10-02T13:16:11.798Z,43.97
2018-10-02T13:18:40.674Z,43.41
2018-10-02T13:21:09.633Z,42.69
2018-10-02T13:23:38.481Z,43.23
2018-10-02T13:26:07.336Z,42.89
2018-10-02T13:28:36.297Z,43.08
2018-10-02T13:31:05.134Z,42.97
2018-10-02T13:33:34.051Z,42.74
2018-10-02T13:36:02.946Z,42.01
2018-10-02T13:38:31.823Z,40.71
2018-10-02T13:41:00.891Z,40.85
2018-10-02T13:43:29.814Z,41.01
2018-10-02T13:45:58.653Z,40.67
2018-10-02T13:48:27.599Z,41.27
2018-10-02T13:50:56.524Z,42.10
2018-10-02T13:53:25.396Z,41.56
2018-10-02T13:55:54.291Z,42.20
2018-10-02T13:58:23.292Z,42.58
2018-10-02T14:00:52.280Z,42.60
2018-10-02T14:03:21.102Z,42.27
2018-10-02T14:05:49.944Z,41.01
2018-10-02T14:08:18.974Z,41.46
2018-10-02T14:10:48.058Z,41.43
2018-10-02T14:13:16.927Z,41.51
2018-10-02T14:15:45.759Z,41.26
2018-10-02T14:18:14.566Z,41.87
2018-10-02T14:20:43.538Z,41.93
2018-10-02T14:23:19.143Z,42.20
2018-10-02T14:25:48.182Z,41.74
2018-10-02T14:28:17.066Z,42.09
2018-10-02T14:30:46.072Z,42.11
2018-10-02T14:33:15.092Z,41.79
2018-10-02T14:35:44.059Z,42.74
2018-10-02T14:38:13.901Z,42.99
2018-10-02T14:40:42.923Z,41.93
2018-10-02T14:43:12.067Z,42.57
2018-10-02T14:45:41.365Z,42.64
2018-10-02T14:48:10.303Z,43.33
2018-10-02T14:50:39.537Z,42.56
2018-10-02T14:53:08.646Z,43.60
2018-10-02T14:55:37.685Z,43.42
2018-10-02T14:58:07.541Z,44.41
2018-10-02T15:00:37.210Z,45.01
2018-10-02T15:03:06.503Z,44.60
2018-10-02T15:05:35.508Z,45.22
2018-10-02T15:08:04.349Z,45.89
2018-10-02T15:10:33.172Z,46.49
2018-10-02T15:13:02.166Z,47.85
2018-10-02T15:15:31.103Z,47.65
2018-10-02T15:18:00.068Z,48.76
2018-10-02T15:20:29.251Z,49.32
2018-10-02T15:22:58.274Z,49.78
2018-10-02T15:25:27.208Z,49.22
2018-10-02T15:27:56.138Z,48.93
2018-10-02T15:30:25.312Z,50.06
2018-10-02T15:32:54.148Z,50.44
2018-10-02T15:35:22.988Z,50.93
2018-10-02T15:37:52.000Z,50.81
2018-10-02T15:40:20.952Z,50.76
2018-10-02T15:42:49.807Z,50.54
2018-10-02T15:45:18.727Z,51.77
2018-10-02T15:47:47.708Z,51.90
2018-10-02T15:50:16.594Z,52.19
2018-10-02T15:52:45.468Z,52.27
2018-10-02T15:55:14.352Z,52.32
2018-10-02T15:57:43.234Z,51.63
2018-10-02T16:00:12.084Z,52.48
2018-10-02T16:02:40.961Z,52.80
2018-10-02T16:05:09.882Z,52.12
2018-10-02T16:07:38.677Z,52.13
2018-10-02T16:10:07.645Z,52.12
2018-10-02T16:12:36.582Z,53.16
2018-10-02T16:15:05.555Z,52.56
2018-10-02T16:17:34.421Z,53.09
2018-10-02T16:20:03.347Z,53.89
2018-10-02T16:22:32.215Z,55.23
2018-10-02T16:25:01.163Z,56.21
2018-10-02T16:27:30.383Z,55.85
2018-10-02T16:29:59.258Z,55.47
2018-10-02T16:32:28.074Z,56.05
2018-10-02T16:34:57.018Z,55.53
2018-10-02T16:37:26.016Z,54.08
2018-10-02T16:39:55.029Z,51.83
2018-10-02T16:42:23.991Z,51.75
2018-10-02T16:44:52.941Z,49.80
2018-10-02T16:47:21.864Z,50.82
2018-10-02T16:49:50.647Z,50.37
2018-10-02T16:52:19.628Z,51.79
2018-10-02T16:54:48.656Z,47.82
2018-10-02T16:57:17.602Z,47.78
2018-10-02T16:59:46.736Z,46.75
2018-10-02T17:02:15.557Z,46.69
2018-10-02T17:04:44.608Z,50.58
2018-10-02T17:07:13.453Z,52.93
2018-10-02T17:09:42.285Z,53.54
2018-10-02T17:12:11.189Z,54.11
2018-10-02T17:14:40.086Z,54.77
2018-10-02T17:17:08.985Z,54.72
2018-10-02T17:19:37.831Z,54.55
2018-10-02T17:22:06.738Z,54.40
2018-10-02T17:24:35.598Z,55.66
2018-10-02T17:27:04.537Z,55.86
2018-10-02T17:29:33.397Z,56.40
2018-10-02T17:32:02.279Z,56.55
2018-10-02T17:34:31.132Z,56.43
2018-10-02T17:37:00.001Z,54.95
2018-10-02T17:39:29.010Z,52.33
2018-10-02T17:41:57.954Z,50.19
2018-10-02T17:44:26.762Z,49.66
2018-10-02T17:46:55.713Z,49.72
2018-10-02T17:49:24.934Z,50.44
2018-10-02T17:51:53.887Z,49.84
2018-10-02T17:54:22.962Z,50.10
2018-10-02T17:56:52.006Z,51.30
2018-10-02T17:59:20.933Z,51.73
2018-10-02T18:01:49.984Z,52.16
2018-10-02T18:04:18.907Z,51.70
2018-10-02T18:06:47.848Z,52.54
2018-10-02T18:09:16.719Z,52.63
2018-10-02T18:11:45.545Z,52.74
2018-10-02T18:14:14.590Z,53.40
2018-10-02T18:16:43.456Z,52.98
2018-10-02T18:19:12.347Z,53.89
2018-10-02T18:21:41.193Z,53.77
2018-10-02T18:24:10.202Z,54.53
2018-10-02T18:26:39.034Z,54.09
2018-10-02T18:29:08.019Z,55.16
2018-10-02T18:31:41.287Z,55.60
2018-10-02T18:34:10.351Z,56.11
2018-10-02T18:36:39.255Z,56.59
2018-10-02T18:39:08.642Z,56.24
2018-10-02T18:41:37.601Z,57.06
2018-10-02T18:44:06.779Z,57.53
2018-10-02T18:46:36.301Z,57.35
2018-10-02T18:49:05.811Z,57.78
2018-10-02T18:51:35.043Z,58.87
2018-10-02T18:54:03.943Z,58.84
2018-10-02T18:56:33.140Z,59.28
2018-10-02T18:59:02.296Z,59.84
2018-10-02T19:01:31.157Z,59.21
2018-10-02T19:04:00.008Z,60.62
2018-10-02T19:06:28.911Z,60.42
2018-10-02T19:09:15.379Z,60.61
2018-10-02T19:11:49.427Z,60.26
2018-10-02T19:14:19.195Z,60.92
2018-10-02T19:16:48.132Z,61.28
2018-10-02T19:19:22.273Z,60.88
2018-10-02T19:21:51.190Z,61.33
2018-10-02T19:24:20.134Z,62.00
2018-10-02T19:26:49.122Z,61.57
2018-10-02T19:29:18.009Z,61.50
2018-10-02T19:31:52.043Z,62.10
2018-10-02T19:34:21.126Z,61.99
2018-10-02T19:36:49.997Z,63.01
2018-10-02T19:39:25.624Z,62.25
2018-10-02T19:41:54.754Z,63.00
2018-10-02T19:44:23.651Z,62.66
2018-10-02T19:46:54.185Z,62.30
2018-10-02T19:49:24.554Z,62.87
2018-10-02T19:51:58.716Z,63.14
2018-10-02T19:54:27.977Z,63.42
2018-10-02T19:56:57.067Z,62.79
2018-10-02T19:59:25.981Z,62.94
2018-10-02T20:01:55.087Z,63.56
2018-10-02T20:04:24.146Z,64.09
2018-10-02T20:06:53.250Z,64.38
2018-10-02T20:09:22.137Z,63.76
2018-10-02T20:11:51.016Z,64.18
2018-10-02T20:14:19.912Z,64.20
2018-10-02T20:16:48.848Z,64.73
2018-10-02T20:19:17.725Z,65.21
2018-10-02T20:21:46.602Z,65.58
2018-10-02T20:24:15.423Z,65.45
2018-10-02T20:26:44.375Z,65.50
2018-10-02T20:29:13.302Z,65.42
2018-10-02T20:31:44.041Z,65.94
2018-10-02T20:34:12.894Z,66.78
2018-10-02T20:36:41.805Z,67.31
2018-10-02T20:39:11.659Z,67.25
2018-10-02T20:41:40.652Z,67.06
2018-10-02T20:44:09.953Z,67.46
2018-10-02T20:46:38.837Z,68.59
2018-10-02T20:49:07.781Z,68.60
2018-10-02T20:51:36.874Z,68.26
2018-10-02T20:54:05.724Z,68.97
2018-10-02T20:56:34.609Z,68.61
2018-10-02T20:59:03.571Z,69.45
2018-10-02T21:01:32.498Z,70.23
2018-10-02T21:04:01.381Z,70.39
2018-10-02T21:06:30.272Z,70.62
2018-10-02T21:08:59.239Z,70.73
2018-10-02T21:11:28.055Z,70.83
2018-10-02T21:13:56.987Z,70.83
2018-10-02T21:16:25.800Z,71.20
2018-10-02T21:18:54.612Z,70.82
2018-10-02T21:21:23.514Z,71.41
2018-10-02T21:23:52.396Z,71.94
2018-10-02T21:26:21.301Z,71.94
2018-10-02T21:28:50.174Z,71.30
2018-10-02T21:31:26.020Z,72.01
2018-10-02T21:33:55.184Z,71.73
2018-10-02T21:36:24.208Z,72.32
2018-10-02T21:38:53.115Z,72.04
2018-10-02T21:41:22.006Z,72.86
2018-10-02T21:43:50.896Z,72.16
2018-10-02T21:46:19.713Z,72.54
2018-10-02T21:48:48.521Z,72.77
2018-10-02T21:51:17.358Z,73.42
2018-10-02T21:53:46.229Z,72.71
2018-10-02T21:56:15.050Z,73.48
2018-10-02T21:58:43.978Z,73.06
2018-10-02T22:01:12.899Z,73.10
2018-10-02T22:03:41.776Z,72.88
2018-10-02T22:06:10.661Z,73.12
2018-10-02T22:08:39.509Z,73.55
2018-10-02T22:11:08.362Z,73.64
2018-10-02T22:13:37.191Z,73.38
2018-10-02T22:16:06.365Z,73.03
2018-10-02T22:18:35.247Z,73.91
2018-10-02T22:21:04.234Z,73.43
2018-10-02T22:23:33.080Z,74.25
2018-10-02T22:26:02.948Z,73.78
2018-10-02T22:28:31.860Z,74.07
2018-10-02T22:31:00.805Z,74.05
2018-10-02T22:33:29.748Z,74.16
2018-10-02T22:35:58.803Z,73.99
2018-10-02T22:38:27.629Z,73.89
2018-10-02T22:40:56.474Z,74.20
2018-10-02T22:43:25.297Z,74.73
2018-10-02T22:45:54.122Z,74.50
2018-10-02T22:48:22.923Z,74.90
2018-10-02T22:50:51.745Z,74.50
2018-10-02T22:53:20.658Z,74.98
2018-10-02T22:55:49.535Z,73.98
2018-10-02T22:58:18.452Z,73.98
2018-10-02T23:00:47.391Z,74.47
2018-10-02T23:03:16.808Z,75.06
2018-10-02T23:05:45.761Z,74.85
2018-10-02T23:08:14.609Z,74.53
2018-10-02T23:10:43.427Z,75.29
2018-10-02T23:13:12.333Z,75.13
2018-10-02T23:15:41.216Z,75.30
2018-10-02T23:18:10.021Z,75.17
2018-10-02T23:20:38.863Z,75.61
2018-10-02T23:23:07.901Z,75.43
2018-10-02T23:25:36.748Z,74.92
2018-10-02T23:28:05.678Z,75.39
2018-10-02T23:30:34.586Z,75.13
2018-10-02T23:33:03.503Z,75.01
2018-10-02T23:35:32.674Z,75.02
2018-10-02T23:38:01.573Z,75.90
2018-10-02T23:40:30.377Z,75.36
2018-10-02T23:42:59.349Z,76.13
2018-10-02T23:45:28.302Z,76.16
2018-10-02T23:47:57.133Z,75.98
2018-10-02T23:50:25.955Z,75.85
2018-10-02T23:52:54.901Z,75.86
2018-10-02T23:55:23.802Z,75.68
2018-10-02T23:57:53.604Z,75.73
